TKPK

Saint Kitts and Nevis

Airport
ICAO code
TKPK
Summary
ICAO Region
CARSAM
ICAO Territory
Location

Basseterre, Saint Kitts,

Coordinates
17° 18' 40" N , 62° 43' 7" W
KCC
Metar
TKPK 251100Z 06005KT 9999 FEW015 28/24 Q1014

Description

Robert L. Bradshaw International Airport is an international airport located just northeast of Basseterre, on the island of Saint Kitts, serving the nation of Saint Kitts and Nevis.

Climatology

Tropical Monsoon climate (Köppen climate classification Am) - monthly mean temperatures above 18°C in every month of the year and features wet and dry seasons. A tropical monsoon climate typically features less pronounced dry seasons than a tropical savanna climate and see less variance in temperatures during the course of the year. The driest month nearly always occurs at or soon after the "winter" solstice.

Runways

Designator Length Width Surface Rops
7/25 2317 45 ASP Yes/Yes

Airport map

Aerial View

SKYbrary Partners:

Safety knowledge contributed by: